Time;durP1;ratioP1;P1;durP2;ratioP2;P2;SDS_P1;SDS_P2;PMS_P1;PMS_P2;Temp;Humidity;BMP_temperature;BMP_pressure;BME280_temperature;BME280_humidity;BME280_pressure;Samples;Min_cycle;Max_cycle;Signal;HPM_P1;HPM_P2
2023/04/27 00:01:00;;;;;;;4.93;2.63;;;;;;;;;;6246347;23;20398;-73
2023/04/27 00:03:26;;;;;;;3.65;2.38;;;;;;;;;;6218879;23;20107;-73
2023/04/27 00:05:51;;;;;;;3.83;2.22;;;;;;;;;;6245737;23;20004;-73
2023/04/27 00:08:16;;;;;;;4.38;2.25;;;;;;;;;;6244942;23;20086;-72
2023/04/27 00:10:42;;;;;;;5.50;2.63;;;;;;;;;;6219396;23;20039;-72
2023/04/27 00:13:07;;;;;;;4.70;2.30;;;;;;;;;;6244292;23;20097;-73
2023/04/27 00:15:32;;;;;;;4.88;2.45;;;;;;;;;;6245145;23;20011;-73
2023/04/27 00:17:58;;;;;;;4.78;2.38;;;;;;;;;;6244686;23;20008;-72
2023/04/27 00:20:24;;;;;;;4.20;2.53;;;;;;;;;;6245166;23;20075;-74
2023/04/27 00:22:49;;;;;;;4.28;2.20;;;;;;;;;;6217195;23;20019;-73
2023/04/27 00:25:15;;;;;;;4.80;2.25;;;;;;;;;;6217656;23;20431;-73
2023/04/27 00:27:40;;;;;;;4.60;2.58;;;;;;;;;;6217011;23;20004;-73
2023/04/27 00:30:06;;;;;;;3.83;2.20;;;;;;;;;;6243772;23;20001;-73
2023/04/27 00:32:32;;;;;;;5.30;2.30;;;;;;;;;;6242981;23;20323;-74
2023/04/27 00:34:57;;;;;;;4.65;2.55;;;;;;;;;;6217666;23;20015;-73
2023/04/27 00:37:23;;;;;;;3.95;2.17;;;;;;;;;;6241679;23;20361;-72
2023/04/27 00:39:48;;;;;;;3.80;2.28;;;;;;;;;;6216722;23;20346;-73
2023/04/27 00:42:16;;;;;;;5.55;2.80;;;;;;;;;;6242915;23;20004;-77
2023/04/27 00:44:41;;;;;;;5.53;2.70;;;;;;;;;;6216843;23;20000;-74
2023/04/27 00:47:07;;;;;;;4.15;2.58;;;;;;;;;;6245022;23;20004;-72
2023/04/27 00:49:32;;;;;;;5.57;2.85;;;;;;;;;;6245658;23;20004;-72
2023/04/27 00:51:59;;;;;;;4.30;2.53;;;;;;;;;;6244669;23;20004;-72
2023/04/27 00:54:24;;;;;;;5.53;2.42;;;;;;;;;;6244251;23;20008;-73
2023/04/27 00:56:50;;;;;;;5.15;2.30;;;;;;;;;;6244366;23;20403;-74
2023/04/27 00:59:17;;;;;;;5.93;2.33;;;;;;;;;;6245411;22;20335;-73
2023/04/27 01:01:43;;;;;;;4.90;2.40;;;;;;;;;;6244357;23;20004;-73
2023/04/27 01:04:09;;;;;;;4.53;2.58;;;;;;;;;;6245144;23;20050;-73
2023/04/27 01:06:34;;;;;;;3.85;2.03;;;;;;;;;;6245450;23;20004;-72
2023/04/27 01:09:00;;;;;;;4.85;2.47;;;;;;;;;;6245333;23;20441;-72
2023/04/27 01:11:25;;;;;;;4.30;2.40;;;;;;;;;;6245893;23;20084;-73
2023/04/27 01:13:52;;;;;;;5.47;2.38;;;;;;;;;;6246002;23;20027;-72
2023/04/27 01:16:18;;;;;;;4.13;2.35;;;;;;;;;;6245975;23;20031;-73
2023/04/27 01:18:44;;;;;;;4.50;2.58;;;;;;;;;;6245725;23;20415;-73
2023/04/27 01:21:10;;;;;;;4.35;2.80;;;;;;;;;;6245299;23;20419;-72
2023/04/27 01:23:35;;;;;;;6.47;2.67;;;;;;;;;;6245182;23;20026;-73
2023/04/27 01:26:01;;;;;;;5.28;2.42;;;;;;;;;;6218437;23;20011;-73
2023/04/27 01:28:26;;;;;;;4.57;2.67;;;;;;;;;;6218549;23;20417;-74
2023/04/27 01:30:51;;;;;;;4.57;2.70;;;;;;;;;;6215608;23;20004;-73
2023/04/27 01:33:17;;;;;;;5.03;2.80;;;;;;;;;;6215893;23;20004;-74
2023/04/27 01:35:42;;;;;;;4.45;2.70;;;;;;;;;;6242762;23;20011;-73
2023/04/27 01:38:08;;;;;;;5.78;2.65;;;;;;;;;;6215486;23;20219;-73
2023/04/27 01:40:33;;;;;;;4.38;2.50;;;;;;;;;;6215262;23;20004;-73
2023/04/27 01:42:58;;;;;;;5.43;2.53;;;;;;;;;;6215905;23;20008;-73
2023/04/27 01:45:24;;;;;;;5.25;2.60;;;;;;;;;;6216503;23;20034;-73
2023/04/27 01:47:50;;;;;;;4.97;2.70;;;;;;;;;;6245060;23;20004;-72
2023/04/27 01:50:16;;;;;;;5.18;2.90;;;;;;;;;;6244472;23;20087;-73
2023/04/27 01:52:41;;;;;;;4.63;2.65;;;;;;;;;;6243676;23;20437;-73
2023/04/27 01:55:07;;;;;;;4.38;2.85;;;;;;;;;;6244003;23;20012;-73
2023/04/27 01:57:32;;;;;;;4.85;2.67;;;;;;;;;;6245413;23;20011;-73
2023/04/27 01:59:57;;;;;;;4.70;2.72;;;;;;;;;;6218580;22;20334;-74
2023/04/27 02:02:23;;;;;;;5.63;2.88;;;;;;;;;;6245635;23;20008;-72
2023/04/27 02:04:48;;;;;;;6.40;3.00;;;;;;;;;;6245516;23;20370;-73
2023/04/27 02:07:13;;;;;;;7.15;3.45;;;;;;;;;;6218877;23;20087;-72
2023/04/27 02:09:39;;;;;;;5.68;2.83;;;;;;;;;;6245498;23;20001;-72
2023/04/27 02:12:04;;;;;;;5.00;2.85;;;;;;;;;;6244702;23;20012;-73
2023/04/27 02:14:30;;;;;;;6.47;3.05;;;;;;;;;;6245853;23;20008;-73
2023/04/27 02:16:55;;;;;;;5.68;3.00;;;;;;;;;;6245537;23;20327;-72
2023/04/27 02:19:20;;;;;;;6.32;2.97;;;;;;;;;;6245456;23;20442;-72
2023/04/27 02:21:46;;;;;;;4.93;2.85;;;;;;;;;;6245329;23;20000;-74
2023/04/27 02:24:11;;;;;;;5.97;2.97;;;;;;;;;;6245618;23;20365;-73
2023/04/27 02:26:36;;;;;;;6.30;2.88;;;;;;;;;;6245478;23;20004;-72
2023/04/27 02:29:02;;;;;;;5.55;2.88;;;;;;;;;;6244133;23;20419;-72
2023/04/27 02:31:28;;;;;;;5.05;2.88;;;;;;;;;;6217931;23;20007;-74
2023/04/27 02:33:53;;;;;;;5.80;3.20;;;;;;;;;;6220104;23;20432;-73
2023/04/27 02:36:18;;;;;;;4.47;2.70;;;;;;;;;;6220794;23;20094;-72
2023/04/27 02:38:44;;;;;;;4.57;2.67;;;;;;;;;;6245713;23;20000;-72
2023/04/27 02:41:09;;;;;;;5.47;2.90;;;;;;;;;;6219669;23;20095;-74
2023/04/27 02:43:34;;;;;;;5.47;2.80;;;;;;;;;;6245335;23;20013;-76
2023/04/27 02:46:03;;;;;;;8.10;2.97;;;;;;;;;;6247298;23;20415;-72
2023/04/27 02:48:32;;;;;;;9.50;3.28;;;;;;;;;;6246863;23;20004;-75
2023/04/27 02:50:57;;;;;;;8.93;3.33;;;;;;;;;;6219470;23;20000;-72
2023/04/27 02:53:22;;;;;;;5.38;2.88;;;;;;;;;;6246463;23;20015;-73
2023/04/27 02:55:48;;;;;;;6.63;2.97;;;;;;;;;;6247151;23;20008;-73
2023/04/27 02:58:15;;;;;;;5.93;3.00;;;;;;;;;;6245829;23;20035;-72
2023/04/27 03:00:41;;;;;;;4.90;2.95;;;;;;;;;;6245678;22;20087;-73
2023/04/27 03:03:08;;;;;;;5.68;3.00;;;;;;;;;;6246340;23;20054;-72
2023/04/27 03:05:34;;;;;;;5.82;3.38;;;;;;;;;;6220007;23;20074;-73
2023/04/27 03:07:59;;;;;;;5.90;3.25;;;;;;;;;;6219995;23;20008;-72
2023/04/27 03:10:24;;;;;;;7.07;3.25;;;;;;;;;;6246562;23;20487;-73
2023/04/27 03:12:50;;;;;;;6.75;3.33;;;;;;;;;;6219576;23;20011;-73
2023/04/27 03:15:15;;;;;;;8.02;3.65;;;;;;;;;;6220528;23;20488;-73
2023/04/27 03:17:40;;;;;;;8.15;3.53;;;;;;;;;;6220166;23;20012;-72
2023/04/27 03:20:09;;;;;;;4.97;2.92;;;;;;;;;;6220247;23;19992;-73
2023/04/27 03:22:35;;;;;;;5.30;3.03;;;;;;;;;;6220103;23;20008;-72
2023/04/27 03:25:01;;;;;;;6.38;3.55;;;;;;;;;;6220229;23;20007;-73
2023/04/27 03:27:27;;;;;;;4.90;3.17;;;;;;;;;;6246560;23;20445;-73
2023/04/27 03:29:52;;;;;;;5.30;3.15;;;;;;;;;;6246959;23;20008;-72
2023/04/27 03:32:18;;;;;;;7.18;3.13;;;;;;;;;;6247187;23;20004;-72
2023/04/27 03:34:43;;;;;;;5.80;3.20;;;;;;;;;;6247015;23;20011;-72
2023/04/27 03:37:09;;;;;;;5.28;3.38;;;;;;;;;;6219726;23;20035;-73
2023/04/27 03:39:34;;;;;;;5.32;3.33;;;;;;;;;;6219037;23;20065;-73
2023/04/27 03:42:01;;;;;;;5.00;3.00;;;;;;;;;;6218922;23;20008;-73
2023/04/27 03:44:26;;;;;;;5.38;2.90;;;;;;;;;;6219679;23;20342;-73
2023/04/27 03:46:52;;;;;;;7.50;3.10;;;;;;;;;;6218777;23;20012;-73
2023/04/27 03:49:17;;;;;;;6.40;3.25;;;;;;;;;;6195389;23;20004;-72
2023/04/27 03:51:42;;;;;;;5.50;2.97;;;;;;;;;;6219450;23;20003;-73
2023/04/27 03:54:08;;;;;;;5.43;3.05;;;;;;;;;;6245257;23;20004;-73
2023/04/27 03:56:34;;;;;;;7.68;3.58;;;;;;;;;;6219229;23;20441;-72
2023/04/27 03:58:59;;;;;;;4.60;3.00;;;;;;;;;;6246252;22;20000;-73
2023/04/27 04:01:25;;;;;;;7.32;3.67;;;;;;;;;;6218510;23;20008;-72
2023/04/27 04:03:50;;;;;;;8.75;3.08;;;;;;;;;;6246749;23;20000;-73
2023/04/27 04:06:16;;;;;;;7.20;3.22;;;;;;;;;;6219360;23;20004;-73
2023/04/27 04:08:41;;;;;;;5.20;3.00;;;;;;;;;;6219055;23;20019;-76
2023/04/27 04:11:07;;;;;;;7.63;3.42;;;;;;;;;;6245566;23;20000;-73
2023/04/27 04:13:32;;;;;;;5.40;3.10;;;;;;;;;;6245841;23;20000;-73
2023/04/27 04:16:05;;;;;;;6.65;3.17;;;;;;;;;;6245953;23;20030;-73
2023/04/27 04:18:31;;;;;;;5.63;3.22;;;;;;;;;;6245606;23;20026;-73
2023/04/27 04:20:57;;;;;;;5.80;3.70;;;;;;;;;;6246733;23;20008;-73
2023/04/27 04:23:22;;;;;;;6.03;3.33;;;;;;;;;;6245288;23;20031;-74
2023/04/27 04:25:48;;;;;;;6.38;3.22;;;;;;;;;;6244825;23;20003;-72
2023/04/27 04:28:14;;;;;;;7.43;3.75;;;;;;;;;;6245260;23;20004;-73
2023/04/27 04:30:39;;;;;;;6.35;3.20;;;;;;;;;;6219175;23;20035;-73
2023/04/27 04:33:05;;;;;;;8.20;3.15;;;;;;;;;;6245813;23;20511;-72
2023/04/27 04:35:33;;;;;;;5.63;3.22;;;;;;;;;;6217909;23;20401;-73
2023/04/27 04:37:59;;;;;;;7.35;3.40;;;;;;;;;;6220134;23;20004;-72
2023/04/27 04:40:24;;;;;;;9.43;3.15;;;;;;;;;;6245325;23;20002;-72
2023/04/27 04:42:49;;;;;;;6.05;3.03;;;;;;;;;;6193408;23;20008;-73
2023/04/27 04:45:15;;;;;;;5.90;3.10;;;;;;;;;;6218186;23;20008;-72
2023/04/27 04:47:40;;;;;;;5.40;3.40;;;;;;;;;;6244618;23;20006;-72
2023/04/27 04:50:08;;;;;;;8.73;3.67;;;;;;;;;;6245239;23;20008;-73
2023/04/27 04:52:33;;;;;;;7.25;3.35;;;;;;;;;;6218944;23;20008;-73
2023/04/27 04:54:58;;;;;;;6.85;3.50;;;;;;;;;;6217229;23;20050;-72
2023/04/27 04:57:24;;;;;;;8.10;3.75;;;;;;;;;;6246310;23;20047;-72
2023/04/27 04:59:49;;;;;;;5.30;3.13;;;;;;;;;;6217615;23;20570;-74
2023/04/27 05:02:14;;;;;;;7.32;3.15;;;;;;;;;;6244954;23;20470;-73
2023/04/27 05:04:40;;;;;;;6.60;3.92;;;;;;;;;;6217468;23;20015;-75
2023/04/27 05:07:05;;;;;;;5.53;3.15;;;;;;;;;;6217910;23;20082;-72
2023/04/27 05:09:31;;;;;;;5.65;3.03;;;;;;;;;;6245887;23;19996;-73
2023/04/27 05:11:56;;;;;;;5.88;3.03;;;;;;;;;;6245404;23;20004;-73
2023/04/27 05:14:21;;;;;;;6.10;3.22;;;;;;;;;;6245636;23;20000;-74
2023/04/27 05:16:48;;;;;;;6.22;3.17;;;;;;;;;;6245700;23;20000;-74
2023/04/27 05:19:17;;;;;;;7.38;3.17;;;;;;;;;;6218480;23;20004;-76
2023/04/27 05:21:45;;;;;;;5.88;3.00;;;;;;;;;;6245277;23;20015;-73
2023/04/27 05:24:11;;;;;;;5.85;2.95;;;;;;;;;;6217045;23;20027;-75
2023/04/27 05:26:37;;;;;;;9.05;3.20;;;;;;;;;;6218840;23;20011;-72
2023/04/27 05:29:03;;;;;;;5.75;3.28;;;;;;;;;;6217125;23;20008;-73
2023/04/27 05:31:28;;;;;;;5.82;2.85;;;;;;;;;;6219036;23;20012;-72
2023/04/27 05:33:54;;;;;;;5.53;3.05;;;;;;;;;;6243119;23;20094;-73
2023/04/27 05:36:19;;;;;;;5.93;3.45;;;;;;;;;;6218581;23;20449;-72
2023/04/27 05:38:44;;;;;;;6.30;2.80;;;;;;;;;;6243714;23;20091;-73
2023/04/27 05:41:10;;;;;;;6.63;2.60;;;;;;;;;;6243022;23;20012;-74
2023/04/27 05:43:37;;;;;;;4.55;2.63;;;;;;;;;;6244758;23;20008;-73
2023/04/27 05:46:03;;;;;;;5.25;2.75;;;;;;;;;;6218589;23;20337;-79
2023/04/27 05:48:28;;;;;;;5.60;3.08;;;;;;;;;;6214265;23;20042;-77
2023/04/27 05:51:03;;;;;;;4.68;2.75;;;;;;;;;;6215714;23;20008;-79
2023/04/27 05:53:29;;;;;;;7.53;2.75;;;;;;;;;;6214710;23;20004;-77
2023/04/27 05:55:58;;;;;;;4.80;3.00;;;;;;;;;;6239591;23;20004;-79
2023/04/27 05:58:24;;;;;;;5.05;2.63;;;;;;;;;;6241076;22;20011;-79
2023/04/27 06:00:49;;;;;;;7.22;3.10;;;;;;;;;;6242127;23;20008;-79
2023/04/27 06:03:15;;;;;;;6.05;2.75;;;;;;;;;;6244482;23;20070;-80
2023/04/27 06:05:40;;;;;;;7.57;3.10;;;;;;;;;;6242550;23;20431;-79
2023/04/27 06:08:06;;;;;;;4.85;2.63;;;;;;;;;;6246466;23;20004;-79
2023/04/27 06:10:31;;;;;;;6.68;3.10;;;;;;;;;;6244819;23;20000;-78
2023/04/27 06:12:56;;;;;;;5.95;3.08;;;;;;;;;;6245644;23;20011;-79
2023/04/27 06:15:22;;;;;;;5.80;2.90;;;;;;;;;;6216708;23;20000;-79
2023/04/27 06:17:47;;;;;;;6.53;2.90;;;;;;;;;;6243488;23;20331;-79
2023/04/27 06:20:13;;;;;;;6.47;2.60;;;;;;;;;;6241751;23;20375;-77
2023/04/27 06:22:38;;;;;;;4.75;2.40;;;;;;;;;;6244905;23;20000;-79
2023/04/27 06:25:05;;;;;;;5.95;2.65;;;;;;;;;;6218180;23;20014;-79
2023/04/27 06:27:30;;;;;;;6.53;2.78;;;;;;;;;;6217020;23;20435;-79
2023/04/27 06:29:56;;;;;;;5.65;2.35;;;;;;;;;;6220975;23;20058;-75
2023/04/27 06:32:21;;;;;;;4.57;2.00;;;;;;;;;;6270656;23;20004;-76
2023/04/27 06:34:48;;;;;;;6.22;2.40;;;;;;;;;;6267671;22;20008;-75
2023/04/27 06:37:15;;;;;;;4.05;2.00;;;;;;;;;;6270456;23;20087;-75
2023/04/27 06:39:42;;;;;;;4.75;2.40;;;;;;;;;;6271337;23;20044;-76
2023/04/27 06:42:07;;;;;;;4.35;2.20;;;;;;;;;;6271972;23;20004;-76
2023/04/27 06:44:32;;;;;;;6.95;2.03;;;;;;;;;;6267702;22;20051;-79
2023/04/27 06:46:58;;;;;;;6.10;2.10;;;;;;;;;;6219125;23;20004;-79
2023/04/27 06:49:23;;;;;;;4.85;2.30;;;;;;;;;;6245659;23;20004;-79
2023/04/27 06:51:48;;;;;;;4.95;2.17;;;;;;;;;;6218346;23;20443;-78
2023/04/27 06:54:14;;;;;;;8.27;2.05;;;;;;;;;;6242872;23;20004;-77
2023/04/27 06:56:39;;;;;;;4.13;2.20;;;;;;;;;;6217992;23;20016;-79
2023/04/27 06:59:05;;;;;;;6.75;2.30;;;;;;;;;;6247006;22;20006;-79
2023/04/27 07:01:30;;;;;;;3.75;2.33;;;;;;;;;;6245099;23;20006;-78
2023/04/27 07:03:56;;;;;;;7.80;2.38;;;;;;;;;;6244277;23;20000;-79
2023/04/27 07:06:21;;;;;;;5.45;2.72;;;;;;;;;;6246122;23;20058;-79
2023/04/27 07:08:47;;;;;;;6.20;2.45;;;;;;;;;;6243332;23;20008;-78
2023/04/27 07:11:12;;;;;;;6.10;2.30;;;;;;;;;;6216704;23;20043;-78
2023/04/27 07:13:38;;;;;;;5.43;2.55;;;;;;;;;;6243450;23;20011;-79
2023/04/27 07:16:03;;;;;;;4.93;2.10;;;;;;;;;;6245369;23;20422;-79
2023/04/27 07:18:29;;;;;;;5.97;2.33;;;;;;;;;;6244069;23;20319;-77
2023/04/27 07:20:56;;;;;;;5.68;2.40;;;;;;;;;;6243550;23;20034;-79
2023/04/27 07:23:22;;;;;;;5.15;2.58;;;;;;;;;;6213042;23;20438;-78
2023/04/27 07:25:48;;;;;;;5.88;2.63;;;;;;;;;;6217287;23;20008;-77
2023/04/27 07:28:14;;;;;;;4.00;2.45;;;;;;;;;;6244567;23;20000;-78
2023/04/27 07:30:40;;;;;;;8.48;3.22;;;;;;;;;;6245399;23;20082;-78
2023/04/27 07:33:06;;;;;;;3.85;2.03;;;;;;;;;;6218710;23;20374;-79
2023/04/27 07:35:32;;;;;;;4.50;2.20;;;;;;;;;;6218384;23;20031;-78
2023/04/27 07:37:59;;;;;;;5.50;2.53;;;;;;;;;;6217355;23;20103;-79
2023/04/27 07:40:25;;;;;;;5.78;2.58;;;;;;;;;;6216700;23;20006;-79
2023/04/27 07:42:50;;;;;;;4.68;2.75;;;;;;;;;;6217149;23;20485;-79
2023/04/27 07:45:18;;;;;;;5.20;2.30;;;;;;;;;;6244683;23;20015;-79
2023/04/27 07:47:45;;;;;;;8.85;2.63;;;;;;;;;;6217517;23;20004;-79
2023/04/27 07:50:13;;;;;;;5.85;2.50;;;;;;;;;;6244423;23;20004;-79
2023/04/27 07:52:38;;;;;;;5.25;2.10;;;;;;;;;;6245308;23;20373;-76
2023/04/27 07:55:04;;;;;;;4.72;2.50;;;;;;;;;;6216772;23;20066;-79
2023/04/27 07:57:30;;;;;;;5.38;2.40;;;;;;;;;;6216504;23;20008;-78
2023/04/27 07:59:56;;;;;;;5.15;2.50;;;;;;;;;;6216693;23;20377;-78
2023/04/27 08:02:21;;;;;;;5.65;2.60;;;;;;;;;;6242846;23;20077;-79
2023/04/27 08:04:48;;;;;;;6.28;2.47;;;;;;;;;;6243632;23;20004;-79
2023/04/27 08:07:17;;;;;;;4.93;2.47;;;;;;;;;;6243168;23;20008;-79
2023/04/27 08:09:42;;;;;;;6.97;2.53;;;;;;;;;;6241957;23;20000;-78
2023/04/27 08:12:07;;;;;;;4.30;2.40;;;;;;;;;;6241080;23;20007;-79
2023/04/27 08:14:34;;;;;;;5.93;2.42;;;;;;;;;;6218728;23;20054;-79
2023/04/27 08:16:59;;;;;;;5.72;2.53;;;;;;;;;;6217418;23;20427;-79
2023/04/27 08:19:25;;;;;;;7.80;2.80;;;;;;;;;;6241611;23;20058;-80
2023/04/27 08:21:50;;;;;;;5.82;2.40;;;;;;;;;;6243885;23;20137;-79
2023/04/27 08:24:15;;;;;;;6.20;2.55;;;;;;;;;;6191926;23;20004;-79
2023/04/27 08:26:41;;;;;;;6.55;2.80;;;;;;;;;;6241530;23;20000;-80
2023/04/27 08:29:06;;;;;;;5.65;2.78;;;;;;;;;;6214260;23;20834;-79
2023/04/27 08:31:32;;;;;;;4.88;2.50;;;;;;;;;;6241303;23;20012;-77
2023/04/27 08:33:57;;;;;;;4.97;2.40;;;;;;;;;;6241613;23;20007;-79
2023/04/27 08:36:23;;;;;;;4.65;2.20;;;;;;;;;;6216892;23;20008;-80
2023/04/27 08:38:52;;;;;;;5.22;2.40;;;;;;;;;;6243877;23;20000;-80
2023/04/27 08:41:22;;;;;;;5.25;2.40;;;;;;;;;;6243620;23;20008;-79
2023/04/27 08:43:52;;;;;;;5.43;2.47;;;;;;;;;;6216908;23;20053;-79
2023/04/27 08:46:22;;;;;;;6.70;2.60;;;;;;;;;;6239981;23;20427;-78
2023/04/27 08:48:51;;;;;;;5.38;2.45;;;;;;;;;;6244459;23;20311;-79
2023/04/27 08:51:17;;;;;;;6.03;2.50;;;;;;;;;;6216603;23;20000;-79
2023/04/27 08:53:53;;;;;;;5.35;2.45;;;;;;;;;;6241062;23;20073;-79
2023/04/27 08:56:24;;;;;;;5.28;2.72;;;;;;;;;;6244584;23;20004;-79
2023/04/27 08:58:49;;;;;;;4.78;2.30;;;;;;;;;;6241885;22;20010;-79
2023/04/27 09:01:15;;;;;;;5.85;2.53;;;;;;;;;;6215618;23;20031;-80
2023/04/27 09:03:41;;;;;;;5.05;2.50;;;;;;;;;;6245044;23;19999;-79
2023/04/27 09:06:07;;;;;;;5.20;2.35;;;;;;;;;;6216388;23;20505;-79
2023/04/27 09:08:47;;;;;;;5.18;2.83;;;;;;;;;;6234675;23;19999;-77
2023/04/27 09:11:14;;;;;;;7.15;3.05;;;;;;;;;;6231165;23;20011;-79
2023/04/27 09:13:44;;;;;;;3.83;2.28;;;;;;;;;;6207254;23;20014;-78
2023/04/27 09:16:12;;;;;;;8.48;2.53;;;;;;;;;;6234864;23;20004;-76
2023/04/27 09:18:41;;;;;;;4.15;2.50;;;;;;;;;;6234261;23;20004;-77
2023/04/27 09:21:06;;;;;;;5.55;2.50;;;;;;;;;;6234010;23;20040;-79
2023/04/27 09:23:34;;;;;;;5.28;2.40;;;;;;;;;;6232657;23;20437;-78
2023/04/27 09:26:07;;;;;;;5.18;2.80;;;;;;;;;;6202522;23;20012;-77
2023/04/27 09:28:33;;;;;;;4.82;2.40;;;;;;;;;;6233976;23;20006;-79
2023/04/27 09:31:01;;;;;;;6.90;2.55;;;;;;;;;;6207854;23;20012;-79
2023/04/27 09:33:27;;;;;;;4.78;2.55;;;;;;;;;;6233646;23;20007;-78
2023/04/27 09:35:53;;;;;;;7.88;3.00;;;;;;;;;;6199632;23;20008;-77
2023/04/27 09:38:20;;;;;;;6.03;2.53;;;;;;;;;;6207982;23;20020;-79
2023/04/27 09:40:46;;;;;;;7.10;3.05;;;;;;;;;;6207056;23;20598;-79
2023/04/27 09:43:11;;;;;;;6.15;2.70;;;;;;;;;;6233138;23;20020;-78
2023/04/27 09:45:37;;;;;;;5.45;2.67;;;;;;;;;;6234398;23;20070;-77
2023/04/27 09:48:04;;;;;;;4.88;2.28;;;;;;;;;;6232818;23;20004;-79
2023/04/27 09:50:33;;;;;;;6.28;2.30;;;;;;;;;;6232220;23;20012;-79
2023/04/27 09:52:58;;;;;;;3.85;2.45;;;;;;;;;;6232674;23;20015;-77
2023/04/27 09:55:29;;;;;;;5.38;2.47;;;;;;;;;;6233719;23;20503;-78
2023/04/27 09:58:25;;;;;;;5.50;2.58;;;;;;;;;;6232292;23;20008;-79
2023/04/27 10:01:04;;;;;;;7.13;2.30;;;;;;;;;;6203495;23;20468;-78
2023/04/27 10:04:08;;;;;;;7.05;3.00;;;;;;;;;;6233822;23;20008;-78
2023/04/27 10:06:55;;;;;;;5.45;2.42;;;;;;;;;;6230428;23;20430;-77
2023/04/27 10:09:24;;;;;;;5.88;2.25;;;;;;;;;;6228414;23;20008;-79
2023/04/27 10:11:51;;;;;;;5.63;2.58;;;;;;;;;;6231975;23;20011;-79
2023/04/27 10:14:18;;;;;;;5.40;2.70;;;;;;;;;;6235011;23;20004;-78
2023/04/27 10:16:47;;;;;;;5.55;2.60;;;;;;;;;;6235104;23;20012;-79
2023/04/27 10:19:13;;;;;;;4.88;2.40;;;;;;;;;;6241752;23;20001;-79
2023/04/27 10:21:56;;;;;;;4.25;2.47;;;;;;;;;;6241166;23;20011;-79
2023/04/27 10:24:37;;;;;;;;;;;;;;;;;;6218054;23;19996;-79
2023/04/27 10:27:05;;;;;;;6.15;2.58;;;;;;;;;;6242821;23;19911;-78
2023/04/27 10:29:39;;;;;;;4.78;2.38;;;;;;;;;;6216029;23;20015;-79
2023/04/27 10:32:06;;;;;;;4.43;2.90;;;;;;;;;;6216323;23;20062;-78
2023/04/27 10:34:35;;;;;;;6.68;2.45;;;;;;;;;;6243245;23;20363;-78
2023/04/27 10:37:08;;;;;;;5.70;2.50;;;;;;;;;;6244320;23;20457;-79
2023/04/27 10:39:37;;;;;;;3.85;2.50;;;;;;;;;;6217525;23;20000;-78
2023/04/27 10:42:03;;;;;;;5.45;2.45;;;;;;;;;;6244785;23;20494;-78
2023/04/27 10:44:30;;;;;;;4.60;2.60;;;;;;;;;;6244886;23;20006;-79
2023/04/27 10:47:00;;;;;;;6.63;2.88;;;;;;;;;;6217101;23;20008;-79
2023/04/27 10:49:30;;;;;;;4.85;2.58;;;;;;;;;;6243671;23;20488;-79
2023/04/27 10:52:03;;;;;;;5.18;3.05;;;;;;;;;;6243451;23;20000;-79
2023/04/27 10:54:29;;;;;;;5.05;2.47;;;;;;;;;;6246472;23;20004;-79
2023/04/27 10:57:05;;;;;;;5.68;3.00;;;;;;;;;;6246635;23;20379;-79
2023/04/27 10:59:31;;;;;;;4.45;2.90;;;;;;;;;;6204372;23;20019;-79
2023/04/27 11:01:57;;;;;;;4.88;2.70;;;;;;;;;;6216072;23;20387;-79
2023/04/27 11:04:22;;;;;;;10.25;3.17;;;;;;;;;;6215372;23;20442;-79
2023/04/27 11:06:47;;;;;;;6.00;2.85;;;;;;;;;;6215499;23;20007;-79
2023/04/27 11:09:23;;;;;;;5.93;3.10;;;;;;;;;;6215158;23;20008;-79
2023/04/27 11:11:49;;;;;;;8.40;3.78;;;;;;;;;;6215618;23;20004;-79
2023/04/27 11:14:19;;;;;;;3.92;2.60;;;;;;;;;;6189162;23;20335;-79
2023/04/27 11:16:46;;;;;;;6.18;3.33;;;;;;;;;;6216046;23;20364;-79
2023/04/27 11:19:12;;;;;;;5.60;3.03;;;;;;;;;;6215997;23;20008;-79
2023/04/27 11:21:38;;;;;;;5.32;2.90;;;;;;;;;;6189267;23;20009;-79
2023/04/27 11:24:05;;;;;;;5.18;3.10;;;;;;;;;;6214197;23;20423;-79
2023/04/27 11:26:31;;;;;;;6.45;2.90;;;;;;;;;;6215507;23;20047;-79
2023/04/27 11:29:03;;;;;;;6.43;2.95;;;;;;;;;;6212326;23;20050;-78
2023/04/27 11:31:47;;;;;;;6.15;3.15;;;;;;;;;;6213017;23;20000;-77
2023/04/27 11:34:24;;;;;;;6.13;2.90;;;;;;;;;;6187513;23;20008;-78
2023/04/27 11:37:07;;;;;;;6.22;3.15;;;;;;;;;;6213945;23;20020;-79
2023/04/27 11:39:37;;;;;;;6.18;3.33;;;;;;;;;;6187811;23;20338;-79
2023/04/27 11:42:24;;;;;;;7.68;3.28;;;;;;;;;;6188103;23;20334;-80
2023/04/27 11:45:02;;;;;;;6.05;3.10;;;;;;;;;;6187927;23;20027;-79
2023/04/27 11:47:29;;;;;;;5.63;2.90;;;;;;;;;;6213802;23;20217;-79
2023/04/27 11:49:56;;;;;;;6.50;3.15;;;;;;;;;;6214775;23;20438;-79
2023/04/27 11:52:35;;;;;;;5.97;3.10;;;;;;;;;;6188715;23;20442;-80
2023/04/27 11:55:05;;;;;;;5.85;3.03;;;;;;;;;;6188852;23;20005;-79
2023/04/27 11:57:33;;;;;;;5.07;3.20;;;;;;;;;;6215614;23;20008;-79
2023/04/27 12:00:01;;;;;;;5.85;2.80;;;;;;;;;;6235678;22;20423;-79
2023/04/27 12:02:27;;;;;;;5.07;3.33;;;;;;;;;;6218304;23;20012;-79
2023/04/27 12:04:53;;;;;;;5.95;3.28;;;;;;;;;;6244442;23;19999;-79
2023/04/27 12:07:19;;;;;;;6.75;3.28;;;;;;;;;;6218359;23;20008;-79
2023/04/27 12:09:44;;;;;;;6.22;3.10;;;;;;;;;;6217108;23;20012;-79
2023/04/27 12:12:17;;;;;;;5.70;3.17;;;;;;;;;;6243918;23;20020;-79
2023/04/27 12:14:43;;;;;;;6.60;2.97;;;;;;;;;;6241678;23;20342;-78
2023/04/27 12:17:08;;;;;;;6.50;3.10;;;;;;;;;;6243405;23;20074;-79
2023/04/27 12:19:35;;;;;;;6.57;3.60;;;;;;;;;;6243441;23;20058;-79
2023/04/27 12:22:01;;;;;;;6.13;3.05;;;;;;;;;;6216010;23;20008;-79
2023/04/27 12:24:26;;;;;;;6.32;3.15;;;;;;;;;;6210512;23;20422;-78
2023/04/27 12:26:51;;;;;;;5.97;3.45;;;;;;;;;;6266351;22;20009;-78
2023/04/27 12:29:17;;;;;;;6.10;3.33;;;;;;;;;;6265721;23;20008;-77
2023/04/27 12:31:42;;;;;;;6.75;3.70;;;;;;;;;;6230060;22;20008;-76
2023/04/27 12:34:08;;;;;;;6.57;3.40;;;;;;;;;;6264071;22;20012;-76
2023/04/27 12:36:33;;;;;;;6.70;3.28;;;;;;;;;;6257946;23;20015;-76
2023/04/27 12:39:13;;;;;;;5.53;3.33;;;;;;;;;;6263136;23;20039;-78
2023/04/27 12:41:38;;;;;;;7.40;3.60;;;;;;;;;;6234868;23;20008;-77
2023/04/27 12:44:04;;;;;;;6.97;3.35;;;;;;;;;;6236787;23;20008;-77
2023/04/27 12:46:29;;;;;;;5.18;3.28;;;;;;;;;;6256891;23;20035;-76
2023/04/27 12:48:55;;;;;;;5.40;3.33;;;;;;;;;;6238590;23;20000;-76
2023/04/27 12:51:21;;;;;;;4.60;3.20;;;;;;;;;;6261564;23;20008;-76
2023/04/27 12:53:47;;;;;;;6.32;3.60;;;;;;;;;;6262898;23;20022;-76
2023/04/27 12:56:12;;;;;;;8.75;3.60;;;;;;;;;;6233780;23;20007;-76
2023/04/27 12:58:38;;;;;;;4.93;3.17;;;;;;;;;;6260159;22;20297;-77
2023/04/27 13:01:06;;;;;;;7.30;3.40;;;;;;;;;;6209696;23;20023;-77
2023/04/27 13:03:31;;;;;;;5.40;3.33;;;;;;;;;;6236958;23;20426;-77
2023/04/27 13:05:57;;;;;;;5.70;3.28;;;;;;;;;;6261174;23;20019;-76
2023/04/27 13:08:22;;;;;;;6.70;2.92;;;;;;;;;;6234429;23;20004;-77
2023/04/27 13:10:48;;;;;;;6.07;3.38;;;;;;;;;;6233844;22;19992;-77
2023/04/27 13:13:13;;;;;;;6.05;3.45;;;;;;;;;;6261776;23;20031;-77
2023/04/27 13:15:38;;;;;;;6.32;3.20;;;;;;;;;;6259288;23;20008;-76
2023/04/27 13:18:05;;;;;;;5.97;3.22;;;;;;;;;;6258098;23;20031;-77
2023/04/27 13:20:30;;;;;;;6.05;3.42;;;;;;;;;;6230757;23;20015;-77
2023/04/27 13:22:56;;;;;;;6.85;3.63;;;;;;;;;;6257585;23;20008;-78
2023/04/27 13:25:22;;;;;;;7.60;3.17;;;;;;;;;;6258357;23;20031;-76
2023/04/27 13:27:47;;;;;;;5.85;3.28;;;;;;;;;;6232877;23;20031;-77
2023/04/27 13:30:13;;;;;;;5.53;3.55;;;;;;;;;;6259274;23;20008;-76
2023/04/27 13:32:38;;;;;;;4.88;3.22;;;;;;;;;;6259253;23;20304;-77
2023/04/27 13:35:04;;;;;;;5.30;3.13;;;;;;;;;;6258837;22;20058;-77
2023/04/27 13:37:30;;;;;;;4.95;3.28;;;;;;;;;;6260481;23;20007;-76
2023/04/27 13:39:55;;;;;;;6.05;3.25;;;;;;;;;;6258502;22;20026;-76
2023/04/27 13:42:22;;;;;;;4.90;3.03;;;;;;;;;;6230097;23;19988;-76
2023/04/27 13:44:48;;;;;;;6.65;3.53;;;;;;;;;;6235764;23;20072;-76
2023/04/27 13:47:13;;;;;;;5.30;3.20;;;;;;;;;;6235510;23;20004;-76
2023/04/27 13:49:38;;;;;;;7.90;3.30;;;;;;;;;;6259326;22;20067;-78
2023/04/27 13:52:04;;;;;;;7.60;3.53;;;;;;;;;;6230691;23;20018;-77
2023/04/27 13:54:29;;;;;;;5.68;2.85;;;;;;;;;;6231327;23;20023;-76
2023/04/27 13:56:55;;;;;;;4.90;2.72;;;;;;;;;;6227043;23;20011;-76
2023/04/27 13:59:20;;;;;;;4.72;3.00;;;;;;;;;;6257038;22;20012;-77
2023/04/27 14:01:46;;;;;;;6.03;3.13;;;;;;;;;;6256277;23;20015;-78
2023/04/27 14:04:11;;;;;;;5.28;3.00;;;;;;;;;;6257792;23;20023;-77
2023/04/27 14:06:36;;;;;;;5.47;3.08;;;;;;;;;;6228658;23;20034;-76
2023/04/27 14:09:02;;;;;;;6.97;3.30;;;;;;;;;;6256794;23;20037;-77
2023/04/27 14:11:27;;;;;;;5.07;3.05;;;;;;;;;;6255412;23;20008;-78
2023/04/27 14:13:52;;;;;;;6.00;3.30;;;;;;;;;;6255804;23;20012;-77
2023/04/27 14:16:18;;;;;;;4.65;3.00;;;;;;;;;;6256123;23;20106;-77
2023/04/27 14:18:43;;;;;;;5.07;3.00;;;;;;;;;;6230189;23;20035;-77
2023/04/27 14:21:09;;;;;;;6.95;3.50;;;;;;;;;;6256917;23;20035;-76
2023/04/27 14:23:34;;;;;;;5.32;3.40;;;;;;;;;;6233115;23;20004;-77
2023/04/27 14:26:00;;;;;;;8.45;3.10;;;;;;;;;;6258634;23;20037;-77
2023/04/27 14:28:25;;;;;;;5.57;3.22;;;;;;;;;;6232119;23;20015;-76
2023/04/27 14:30:51;;;;;;;6.03;3.60;;;;;;;;;;6234394;23;20515;-77
2023/04/27 14:33:16;;;;;;;5.22;3.08;;;;;;;;;;6261093;23;20023;-78
2023/04/27 14:35:41;;;;;;;5.35;3.42;;;;;;;;;;6258864;23;20008;-76
2023/04/27 14:38:07;;;;;;;5.38;3.47;;;;;;;;;;6260952;23;20579;-76
2023/04/27 14:40:32;;;;;;;6.25;3.28;;;;;;;;;;6231759;23;20039;-77